Time;durP1;ratioP1;P1;durP2;ratioP2;P2;SDS_P1;SDS_P2;PMS_P1;PMS_P2;Temp;Humidity;BMP_temperature;BMP_pressure;BME280_temperature;BME280_humidity;BME280_pressure;Samples;Min_cycle;Max_cycle;Signal;HPM_P1;HPM_P2
2022/02/18 00:01:00;;;;;;;7.10;5.30;;;8.90;77.30;;;;;;5091686;28;20518;-63
2022/02/18 00:03:27;;;;;;;7.32;4.68;;;8.80;77.30;;;;;;5088385;28;20031;-63
2022/02/18 00:05:53;;;;;;;6.38;4.72;;;8.70;77.30;;;;;;5088549;28;20069;-63
2022/02/18 00:08:20;;;;;;;7.60;4.88;;;8.70;77.40;;;;;;5090257;28;20016;-63
2022/02/18 00:10:46;;;;;;;6.00;4.88;;;8.70;77.60;;;;;;5092783;28;20097;-63
2022/02/18 00:13:12;;;;;;;6.45;5.35;;;8.70;77.60;;;;;;5090043;28;20086;-63
2022/02/18 00:15:38;;;;;;;6.90;5.43;;;8.70;77.60;;;;;;5082657;28;20021;-63
2022/02/18 00:18:05;;;;;;;6.90;4.82;;;8.70;77.50;;;;;;5083352;28;20420;-61
2022/02/18 00:20:32;;;;;;;6.55;5.22;;;8.70;77.40;;;;;;5089556;28;20056;-63
2022/02/18 00:23:03;;;;;;;7.65;5.22;;;8.70;77.20;;;;;;5076552;28;20025;-63
2022/02/18 00:25:29;;;;;;;7.30;5.47;;;8.70;76.90;;;;;;5096677;28;20034;-63
2022/02/18 00:27:54;;;;;;;7.90;5.18;;;8.70;76.70;;;;;;5088973;28;20520;-63
2022/02/18 00:30:20;;;;;;;7.05;4.90;;;8.70;76.60;;;;;;5084673;28;20388;-63
2022/02/18 00:32:46;;;;;;;6.80;5.13;;;8.60;76.50;;;;;;5092700;28;20028;-63
2022/02/18 00:35:19;;;;;;;7.53;5.30;;;8.60;76.60;;;;;;5091341;28;20040;-63
2022/02/18 00:37:57;;;;;;;8.05;5.70;;;8.60;76.60;;;;;;5083543;28;20070;-63
2022/02/18 00:40:25;;;;;;;9.02;5.95;;;8.50;76.50;;;;;;5091542;28;20467;-63
2022/02/18 00:42:51;;;;;;;9.57;6.50;;;8.50;76.60;;;;;;5093937;28;20032;-63
2022/02/18 00:45:16;;;;;;;8.55;6.85;;;8.40;76.60;;;;;;5078899;28;20023;-63
2022/02/18 00:47:42;;;;;;;8.82;6.70;;;8.40;76.60;;;;;;5086087;28;20384;-63
2022/02/18 00:50:08;;;;;;;9.10;6.10;;;8.30;76.60;;;;;;5083869;28;20074;-63
2022/02/18 00:52:34;;;;;;;7.72;6.13;;;8.30;76.70;;;;;;5086658;28;20472;-63
2022/02/18 00:55:00;;;;;;;9.05;6.20;;;8.30;76.70;;;;;;5089707;28;20082;-63
2022/02/18 00:57:26;;;;;;;9.13;6.35;;;8.30;76.90;;;;;;5084227;28;20391;-63
2022/02/18 00:59:52;;;;;;;8.52;5.93;;;8.20;76.80;;;;;;5091697;28;20032;-63
2022/02/18 01:02:18;;;;;;;7.25;5.47;;;8.20;77.50;;;;;;5084578;28;20025;-63
2022/02/18 01:04:43;;;;;;;9.73;6.00;;;8.20;76.80;;;;;;5092523;28;20028;-63
2022/02/18 01:07:09;;;;;;;9.35;5.60;;;8.20;77.10;;;;;;5089235;28;20472;-63
2022/02/18 01:09:35;;;;;;;6.07;4.82;;;8.20;76.80;;;;;;5082663;28;20012;-63
2022/02/18 01:12:01;;;;;;;7.15;5.70;;;8.10;76.70;;;;;;5093935;28;20149;-63
2022/02/18 01:14:26;;;;;;;7.82;5.47;;;8.10;76.70;;;;;;5083922;28;20017;-63
2022/02/18 01:16:52;;;;;;;8.70;5.05;;;8.10;76.70;;;;;;5084515;28;20020;-63
2022/02/18 01:19:18;;;;;;;7.40;5.43;;;8.00;76.70;;;;;;5081713;28;20048;-63
2022/02/18 01:21:44;;;;;;;7.10;4.97;;;8.00;76.70;;;;;;5093079;28;20388;-63
2022/02/18 01:24:10;;;;;;;6.35;5.00;;;8.00;76.70;;;;;;5084335;28;20102;-63
2022/02/18 01:26:36;;;;;;;5.38;4.07;;;7.90;76.70;;;;;;5086057;28;20035;-63
2022/02/18 01:29:03;;;;;;;6.68;5.00;;;7.90;76.90;;;;;;5091013;28;20070;-61
2022/02/18 01:31:29;;;;;;;6.00;5.07;;;7.90;76.80;;;;;;5083649;28;20020;-63
2022/02/18 01:33:57;;;;;;;5.63;4.75;;;7.90;76.90;;;;;;5084158;28;20028;-63
2022/02/18 01:36:24;;;;;;;6.72;4.57;;;7.90;76.90;;;;;;5084944;28;20032;-63
2022/02/18 01:38:50;;;;;;;7.72;4.90;;;7.80;77.00;;;;;;5083387;28;20035;-63
2022/02/18 01:41:16;;;;;;;7.05;5.22;;;7.80;77.10;;;;;;5089056;28;20024;-63
2022/02/18 01:43:53;;;;;;;9.27;6.22;;;7.80;77.20;;;;;;5086938;28;20506;-63
2022/02/18 01:46:20;;;;;;;10.07;6.78;;;7.90;77.20;;;;;;5086771;28;20032;-63
2022/02/18 01:48:46;;;;;;;8.45;6.53;;;7.90;77.30;;;;;;5093464;28;20024;-63
2022/02/18 01:51:12;;;;;;;9.07;6.40;;;7.90;77.20;;;;;;5082448;28;20388;-63
2022/02/18 01:53:39;;;;;;;7.90;5.78;;;7.90;77.00;;;;;;5087034;28;20022;-63
2022/02/18 01:56:04;;;;;;;7.53;5.50;;;8.00;76.90;;;;;;5086959;28;20028;-63
2022/02/18 01:58:30;;;;;;;7.97;5.45;;;8.00;76.80;;;;;;5090539;28;20020;-64
2022/02/18 02:00:57;;;;;;;8.18;5.55;;;8.00;76.60;;;;;;5085895;28;20031;-63
2022/02/18 02:03:23;;;;;;;6.53;5.00;;;8.00;76.60;;;;;;5081602;28;20383;-63
2022/02/18 02:05:51;;;;;;;5.60;4.90;;;8.10;76.60;;;;;;5086151;28;20074;-63
2022/02/18 02:08:17;;;;;;;6.57;4.57;;;8.10;76.60;;;;;;5087819;28;20078;-63
2022/02/18 02:10:44;;;;;;;7.18;4.82;;;8.10;76.80;;;;;;5084374;28;20047;-63
2022/02/18 02:13:10;;;;;;;5.95;4.57;;;8.10;76.80;;;;;;5083238;28;20492;-63
2022/02/18 02:15:36;;;;;;;8.23;5.40;;;8.10;76.80;;;;;;5088192;28;20471;-63
2022/02/18 02:18:02;;;;;;;8.27;5.20;;;8.10;76.80;;;;;;5079672;28;20033;-63
2022/02/18 02:20:29;;;;;;;8.43;5.00;;;8.10;76.70;;;;;;5095185;28;20562;-63
2022/02/18 02:22:55;;;;;;;6.68;5.05;;;8.10;76.60;;;;;;5091211;28;20419;-63
2022/02/18 02:25:21;;;;;;;6.60;4.95;;;8.10;76.40;;;;;;5086686;28;20046;-63
2022/02/18 02:27:46;;;;;;;6.13;4.63;;;8.10;76.30;;;;;;5081855;28;20029;-63
2022/02/18 02:30:15;;;;;;;7.32;5.80;;;8.20;76.30;;;;;;5080348;28;20020;-60
2022/02/18 02:32:41;;;;;;;8.02;5.63;;;8.10;76.10;;;;;;5085410;28;20032;-63
2022/02/18 02:35:07;;;;;;;8.13;5.68;;;8.10;76.10;;;;;;5082717;28;20040;-63
2022/02/18 02:37:32;;;;;;;7.07;5.00;;;8.10;76.00;;;;;;5089192;28;20043;-63
2022/02/18 02:39:58;;;;;;;7.35;5.18;;;8.10;75.90;;;;;;5087128;28;20053;-63
2022/02/18 02:42:24;;;;;;;6.28;4.57;;;8.10;76.10;;;;;;5078752;28;20029;-63
2022/02/18 02:44:49;;;;;;;6.18;4.03;;;8.10;75.90;;;;;;5089685;28;20028;-63
2022/02/18 02:47:15;;;;;;;5.35;3.80;;;8.10;75.90;;;;;;5088246;28;20027;-63
2022/02/18 02:49:41;;;;;;;4.82;3.67;;;8.10;75.80;;;;;;5084241;28;20035;-63
2022/02/18 02:52:07;;;;;;;6.50;4.00;;;8.10;75.80;;;;;;5084492;28;20024;-63
2022/02/18 02:54:32;;;;;;;5.05;4.03;;;8.20;76.00;;;;;;5085024;28;20365;-63
2022/02/18 02:56:58;;;;;;;6.57;4.22;;;8.10;75.90;;;;;;5092366;28;20024;-63
2022/02/18 02:59:24;;;;;;;5.13;4.00;;;8.20;76.00;;;;;;5081747;28;20119;-63
2022/02/18 03:01:51;;;;;;;4.85;3.72;;;8.20;75.90;;;;;;5086032;28;20016;-63
2022/02/18 03:04:17;;;;;;;5.32;4.20;;;8.30;75.80;;;;;;5082574;28;20024;-63
2022/02/18 03:06:43;;;;;;;6.28;4.18;;;8.30;75.60;;;;;;5087716;28;20069;-63
2022/02/18 03:09:10;;;;;;;6.88;4.07;;;8.40;75.40;;;;;;5078001;28;20380;-63
2022/02/18 03:11:37;;;;;;;7.32;4.10;;;8.40;75.30;;;;;;5091226;28;20027;-60
2022/02/18 03:14:03;;;;;;;5.75;3.67;;;8.50;75.10;;;;;;5085599;28;20021;-63
2022/02/18 03:16:29;;;;;;;4.65;3.45;;;8.50;75.00;;;;;;5086818;28;20480;-63
2022/02/18 03:18:55;;;;;;;3.80;2.85;;;8.60;74.90;;;;;;5067271;28;20190;-63
2022/02/18 03:21:20;;;;;;;6.90;3.53;;;8.60;74.80;;;;;;5088588;28;20020;-63
2022/02/18 03:23:46;;;;;;;5.70;3.60;;;8.60;74.50;;;;;;5083186;28;20494;-63
2022/02/18 03:26:16;;;;;;;4.85;3.53;;;8.60;74.50;;;;;;5079156;28;20023;-63
2022/02/18 03:28:42;;;;;;;4.53;3.33;;;8.60;74.40;;;;;;5086851;28;20031;-63
2022/02/18 03:31:09;;;;;;;4.35;3.25;;;8.70;74.40;;;;;;5080348;28;20031;-60
2022/02/18 03:33:38;;;;;;;4.35;3.70;;;8.70;74.40;;;;;;5090734;28;20032;-63
2022/02/18 03:36:04;;;;;;;6.50;4.30;;;8.70;74.30;;;;;;5088644;28;20075;-63
2022/02/18 03:38:30;;;;;;;7.35;4.65;;;8.80;74.20;;;;;;5088601;28;20451;-63
2022/02/18 03:40:55;;;;;;;6.72;4.40;;;8.80;74.10;;;;;;5090364;28;20051;-63
2022/02/18 03:43:21;;;;;;;5.95;4.10;;;8.80;74.00;;;;;;5087886;28;20143;-63
2022/02/18 03:45:47;;;;;;;7.82;4.38;;;8.80;74.10;;;;;;5089622;28;20020;-62
2022/02/18 03:48:13;;;;;;;6.47;3.92;;;8.80;74.20;;;;;;5088949;28;20019;-62
2022/02/18 03:50:40;;;;;;;3.90;3.35;;;8.80;74.00;;;;;;5084805;28;20043;-62
2022/02/18 03:53:06;;;;;;;5.65;3.88;;;8.80;74.20;;;;;;5091067;28;20036;-63
2022/02/18 03:55:31;;;;;;;5.50;3.67;;;8.80;74.20;;;;;;5084710;28;20132;-62
2022/02/18 03:57:57;;;;;;;6.07;3.92;;;8.80;74.10;;;;;;5094352;28;20035;-62
2022/02/18 04:00:23;;;;;;;6.40;4.35;;;8.80;74.20;;;;;;5089463;28;20023;-62
2022/02/18 04:02:49;;;;;;;5.43;3.97;;;8.80;74.30;;;;;;5081477;28;20028;-62
2022/02/18 04:05:15;;;;;;;5.43;3.90;;;8.80;74.20;;;;;;5090313;28;20028;-62
2022/02/18 04:07:40;;;;;;;5.60;3.90;;;8.80;74.20;;;;;;5084675;28;20016;-62
2022/02/18 04:10:06;;;;;;;6.50;4.47;;;8.80;74.30;;;;;;5088908;28;20059;-62
2022/02/18 04:12:32;;;;;;;5.57;4.22;;;8.80;74.30;;;;;;5081746;28;20020;-62
2022/02/18 04:14:58;;;;;;;5.32;4.32;;;8.80;74.20;;;;;;5088663;28;20063;-62
2022/02/18 04:17:24;;;;;;;4.45;3.72;;;8.80;74.20;;;;;;5090842;28;20025;-62
2022/02/18 04:19:50;;;;;;;4.10;3.70;;;8.80;74.10;;;;;;5090759;28;20020;-62
2022/02/18 04:22:15;;;;;;;5.82;4.35;;;8.80;74.10;;;;;;5080858;28;20052;-62
2022/02/18 04:24:41;;;;;;;5.22;3.80;;;8.80;74.10;;;;;;5077560;28;20403;-62
2022/02/18 04:27:07;;;;;;;3.72;3.38;;;8.80;74.20;;;;;;5086859;28;20537;-62
2022/02/18 04:29:32;;;;;;;4.82;3.90;;;8.80;74.20;;;;;;5092685;28;20533;-62
2022/02/18 04:31:58;;;;;;;4.15;3.63;;;8.80;74.50;;;;;;5087686;28;20073;-62
2022/02/18 04:34:23;;;;;;;5.30;3.70;;;8.70;74.60;;;;;;5086678;28;20044;-62
2022/02/18 04:36:49;;;;;;;4.13;3.33;;;8.70;74.60;;;;;;5084498;28;20060;-62
2022/02/18 04:39:15;;;;;;;4.63;3.30;;;8.70;74.60;;;;;;5085148;28;20020;-62
2022/02/18 04:41:42;;;;;;;3.80;3.38;;;8.60;74.70;;;;;;5085345;28;20121;-62
2022/02/18 04:44:08;;;;;;;4.00;3.42;;;8.60;74.60;;;;;;5083768;28;20019;-62
2022/02/18 04:46:34;;;;;;;4.85;3.40;;;8.60;74.90;;;;;;5088685;28;20503;-62
2022/02/18 04:48:59;;;;;;;5.32;3.58;;;8.50;74.90;;;;;;5083690;28;20008;-62
2022/02/18 04:51:25;;;;;;;4.05;3.65;;;8.50;75.10;;;;;;5087392;28;20443;-62
2022/02/18 04:53:51;;;;;;;3.72;3.15;;;8.50;75.40;;;;;;5089826;28;20035;-62
2022/02/18 04:56:17;;;;;;;3.72;3.30;;;8.40;75.60;;;;;;5080425;28;20107;-62
2022/02/18 04:58:43;;;;;;;4.07;3.40;;;8.40;75.70;;;;;;5091906;28;20094;-62
2022/02/18 05:01:11;;;;;;;4.43;3.47;;;8.30;75.80;;;;;;5079408;28;20512;-62
2022/02/18 05:03:38;;;;;;;4.13;3.08;;;8.30;76.20;;;;;;5090460;28;20028;-62
2022/02/18 05:06:04;;;;;;;4.85;3.58;;;8.20;76.50;;;;;;5090853;28;20107;-62
2022/02/18 05:08:31;;;;;;;5.40;3.55;;;8.20;76.70;;;;;;5083443;28;20024;-62
2022/02/18 05:10:57;;;;;;;3.58;2.90;;;8.20;77.00;;;;;;5081467;28;20016;-62
2022/02/18 05:13:22;;;;;;;3.53;2.95;;;8.10;77.00;;;;;;5083186;28;20028;-62
2022/02/18 05:15:48;;;;;;;4.53;3.05;;;8.10;77.10;;;;;;5095753;28;20023;-62
2022/02/18 05:18:13;;;;;;;3.25;2.97;;;8.10;77.10;;;;;;5091134;28;20015;-62
2022/02/18 05:20:39;;;;;;;4.40;3.50;;;8.00;76.90;;;;;;5085203;28;20455;-62
2022/02/18 05:23:05;;;;;;;4.72;3.90;;;8.00;77.20;;;;;;5088278;28;20378;-62
2022/02/18 05:25:31;;;;;;;3.65;3.25;;;8.00;77.30;;;;;;5087652;28;20029;-62
2022/02/18 05:27:58;;;;;;;4.88;3.67;;;7.90;77.40;;;;;;5087187;28;20029;-62
2022/02/18 05:30:24;;;;;;;5.05;3.60;;;7.90;77.50;;;;;;5080280;28;20427;-62
2022/02/18 05:32:50;;;;;;;5.53;3.45;;;7.90;77.50;;;;;;5087895;28;20027;-62
2022/02/18 05:35:16;;;;;;;4.38;3.65;;;7.90;77.30;;;;;;5086980;28;20051;-62
2022/02/18 05:37:41;;;;;;;5.15;3.90;;;7.90;77.30;;;;;;5087114;28;20021;-62
2022/02/18 05:40:08;;;;;;;4.03;3.35;;;7.90;77.40;;;;;;5081870;28;20024;-62
2022/02/18 05:42:33;;;;;;;4.57;3.58;;;7.80;77.20;;;;;;5087307;28;20028;-62
2022/02/18 05:44:59;;;;;;;4.15;3.65;;;7.80;77.30;;;;;;5081452;28;20035;-62
2022/02/18 05:47:25;;;;;;;4.13;3.38;;;7.80;77.30;;;;;;5086228;28;20048;-62
2022/02/18 05:49:50;;;;;;;4.82;3.08;;;7.80;77.10;;;;;;5089714;28;20526;-62
2022/02/18 05:52:16;;;;;;;3.92;3.00;;;7.70;77.20;;;;;;5083594;28;20032;-62
2022/02/18 05:54:41;;;;;;;3.20;2.63;;;7.70;77.20;;;;;;5085574;28;20035;-62
2022/02/18 05:57:08;;;;;;;3.22;2.92;;;7.60;77.30;;;;;;5084985;28;20035;-63
2022/02/18 05:59:33;;;;;;;4.15;2.83;;;7.60;77.30;;;;;;5087118;28;20119;-63
2022/02/18 06:01:59;;;;;;;3.10;2.80;;;7.60;77.30;;;;;;5083408;28;20107;-63
2022/02/18 06:04:25;;;;;;;2.85;2.65;;;7.50;77.50;;;;;;5087273;28;20024;-63
2022/02/18 06:06:51;;;;;;;3.28;2.97;;;7.50;77.60;;;;;;5079446;28;20034;-63
2022/02/18 06:09:16;;;;;;;3.33;3.03;;;7.40;77.70;;;;;;5087387;28;20028;-63
2022/02/18 06:11:42;;;;;;;3.55;2.80;;;7.40;77.90;;;;;;5090420;28;20020;-63
2022/02/18 06:14:08;;;;;;;3.33;2.90;;;7.30;77.90;;;;;;5090119;28;20101;-63
2022/02/18 06:16:34;;;;;;;3.35;2.85;;;7.30;78.20;;;;;;5087178;28;20034;-63
2022/02/18 06:19:03;;;;;;;3.50;3.00;;;7.30;78.40;;;;;;5087311;28;20038;-63
2022/02/18 06:21:29;;;;;;;4.05;3.00;;;7.30;78.50;;;;;;5082687;28;20111;-63
2022/02/18 06:23:54;;;;;;;3.17;2.88;;;7.20;78.50;;;;;;5083207;28;20123;-63
2022/02/18 06:26:20;;;;;;;4.05;3.15;;;7.20;78.60;;;;;;5087430;28;20257;-63
2022/02/18 06:28:46;;;;;;;3.28;2.97;;;7.10;78.80;;;;;;5085736;28;20024;-63
2022/02/18 06:31:12;;;;;;;3.45;3.03;;;7.10;78.80;;;;;;5087648;28;20028;-63
2022/02/18 06:33:37;;;;;;;2.97;2.67;;;7.10;78.90;;;;;;5089412;28;20473;-63
2022/02/18 06:36:04;;;;;;;4.15;3.38;;;7.00;78.80;;;;;;5082937;28;20056;-63
2022/02/18 06:38:30;;;;;;;3.60;2.90;;;7.00;79.00;;;;;;5078755;28;20613;-63
2022/02/18 06:40:56;;;;;;;3.80;3.40;;;7.00;79.10;;;;;;5084125;28;20044;-63
2022/02/18 06:43:22;;;;;;;3.50;3.15;;;7.00;79.10;;;;;;5082400;28;20035;-64
2022/02/18 06:45:47;;;;;;;4.63;3.50;;;7.00;79.40;;;;;;5081254;28;20525;-63
2022/02/18 06:48:13;;;;;;;3.15;2.85;;;7.10;79.70;;;;;;5081321;28;20028;-63
2022/02/18 06:50:40;;;;;;;4.05;3.03;;;7.20;79.60;;;;;;5078197;28;20032;-63
2022/02/18 06:53:07;;;;;;;3.83;3.38;;;7.30;79.30;;;;;;5078497;28;20035;-63
2022/02/18 06:55:33;;;;;;;3.40;3.10;;;7.30;79.00;;;;;;5081028;28;20052;-63
2022/02/18 06:57:58;;;;;;;4.53;3.30;;;7.40;78.80;;;;;;5084254;28;20112;-63
2022/02/18 07:00:26;;;;;;;4.05;3.28;;;7.50;78.40;;;;;;5079142;28;21138;-63
2022/02/18 07:02:51;;;;;;;3.38;2.67;;;7.50;78.00;;;;;;5076259;28;20448;-63
2022/02/18 07:05:17;;;;;;;2.80;2.55;;;7.60;77.60;;;;;;5078868;28;20109;-63
2022/02/18 07:07:43;;;;;;;3.25;2.90;;;7.60;77.30;;;;;;5073840;28;20016;-64
2022/02/18 07:10:11;;;;;;;3.25;2.90;;;7.60;77.20;;;;;;5071619;28;20023;-63
2022/02/18 07:12:38;;;;;;;3.55;2.92;;;7.60;76.70;;;;;;5075582;28;20034;-63
2022/02/18 07:15:05;;;;;;;2.88;2.38;;;7.60;76.60;;;;;;5073782;28;20031;-63
2022/02/18 07:17:31;;;;;;;3.20;2.53;;;7.60;76.00;;;;;;5078017;28;20086;-63
2022/02/18 07:19:58;;;;;;;2.75;2.50;;;7.60;75.70;;;;;;5069502;28;20077;-63
2022/02/18 07:22:24;;;;;;;3.28;2.67;;;7.60;75.50;;;;;;5069562;28;20052;-63
2022/02/18 07:24:52;;;;;;;2.85;2.35;;;7.70;75.40;;;;;;5066582;28;20051;-63
2022/02/18 07:27:18;;;;;;;3.75;2.40;;;7.70;75.00;;;;;;5074957;28;20062;-63
2022/02/18 07:29:44;;;;;;;2.97;2.20;;;7.70;75.00;;;;;;5072374;28;20125;-64
2022/02/18 07:32:10;;;;;;;2.55;2.35;;;7.70;75.00;;;;;;5066133;28;20124;-63
2022/02/18 07:34:36;;;;;;;3.47;2.60;;;7.70;75.00;;;;;;5074725;28;20614;-63
2022/02/18 07:37:02;;;;;;;2.63;2.42;;;7.70;74.90;;;;;;5074294;28;20020;-63
2022/02/18 07:39:28;;;;;;;3.42;2.70;;;7.80;74.80;;;;;;5075018;28;20680;-63
2022/02/18 07:41:54;;;;;;;3.00;2.80;;;7.80;74.80;;;;;;5072998;28;20028;-63
2022/02/18 07:44:19;;;;;;;3.20;2.90;;;7.80;74.60;;;;;;5077946;28;20035;-63
2022/02/18 07:46:46;;;;;;;3.00;2.50;;;7.80;74.20;;;;;;5077112;28;20357;-63
2022/02/18 07:49:12;;;;;;;3.03;2.72;;;7.90;74.40;;;;;;5074397;28;20047;-63
2022/02/18 07:51:38;;;;;;;3.83;2.90;;;7.80;74.10;;;;;;5068203;28;20130;-63
2022/02/18 07:54:08;;;;;;;4.80;3.17;;;7.80;74.30;;;;;;5076478;28;20723;-64
2022/02/18 07:56:34;;;;;;;3.10;2.80;;;7.90;74.20;;;;;;5069431;28;20548;-63
2022/02/18 07:58:59;;;;;;;3.58;2.95;;;7.90;74.20;;;;;;5064120;28;20040;-65
2022/02/18 08:01:25;;;;;;;3.67;2.78;;;7.90;74.20;;;;;;5063932;28;20024;-64
2022/02/18 08:03:52;;;;;;;2.80;2.33;;;7.90;74.00;;;;;;5066262;28;20063;-63
2022/02/18 08:06:18;;;;;;;3.00;2.42;;;7.90;73.70;;;;;;5077410;28;20583;-63
2022/02/18 08:08:45;;;;;;;3.00;2.70;;;7.90;73.60;;;;;;5077368;28;20031;-63
2022/02/18 08:11:12;;;;;;;2.63;2.42;;;7.90;73.70;;;;;;5073553;28;20193;-66
2022/02/18 08:13:38;;;;;;;2.33;2.17;;;7.90;73.80;;;;;;5066467;28;20066;-64
2022/02/18 08:16:04;;;;;;;2.13;1.92;;;8.00;73.30;;;;;;5071383;28;20103;-63
2022/02/18 08:18:30;;;;;;;2.05;1.95;;;8.00;73.20;;;;;;5073314;28;20043;-64
2022/02/18 08:20:55;;;;;;;2.05;1.90;;;8.00;72.80;;;;;;5071818;28;20707;-64
2022/02/18 08:23:21;;;;;;;1.88;1.77;;;8.10;72.70;;;;;;5070218;28;20032;-64
2022/02/18 08:25:47;;;;;;;2.78;2.00;;;8.10;72.10;;;;;;5072983;28;20069;-64
2022/02/18 08:28:14;;;;;;;3.17;2.15;;;8.10;71.90;;;;;;5072887;28;20049;-63
2022/02/18 08:30:39;;;;;;;1.90;1.80;;;8.00;71.50;;;;;;5080410;28;20697;-63
2022/02/18 08:33:05;;;;;;;2.95;2.05;;;8.00;71.50;;;;;;5074310;28;20036;-63
2022/02/18 08:35:31;;;;;;;2.70;1.83;;;8.00;71.30;;;;;;5052959;28;20052;-64
2022/02/18 08:37:58;;;;;;;1.65;1.55;;;8.00;71.00;;;;;;5077364;28;20112;-63
2022/02/18 08:40:24;;;;;;;2.33;1.92;;;8.00;70.80;;;;;;5077100;28;20067;-63
2022/02/18 08:42:51;;;;;;;2.10;1.90;;;8.00;70.70;;;;;;5082797;28;20032;-63
2022/02/18 08:45:17;;;;;;;2.17;1.95;;;8.00;70.60;;;;;;5077291;28;20078;-65
2022/02/18 08:47:42;;;;;;;2.00;1.80;;;8.00;70.60;;;;;;5070036;28;20062;-64
2022/02/18 08:50:09;;;;;;;1.60;1.50;;;8.00;70.30;;;;;;5080934;28;20051;-63
2022/02/18 08:52:39;;;;;;;1.73;1.63;;;8.10;70.40;;;;;;5072115;28;20031;-64
2022/02/18 08:55:06;;;;;;;1.67;1.52;;;8.10;70.00;;;;;;5071699;28;20036;-62
2022/02/18 08:57:32;;;;;;;1.58;1.48;;;8.10;69.70;;;;;;5065480;28;20495;-64
2022/02/18 08:59:58;;;;;;;1.70;1.60;;;8.10;70.10;;;;;;5077525;28;20113;-63
2022/02/18 09:02:24;;;;;;;1.60;1.50;;;8.10;69.40;;;;;;5074974;28;20521;-63
2022/02/18 09:04:54;;;;;;;1.30;1.30;;;8.10;69.40;;;;;;5073377;28;20032;-63
2022/02/18 09:07:21;;;;;;;2.63;1.77;;;8.10;69.50;;;;;;5071894;28;20083;-63
2022/02/18 09:09:47;;;;;;;1.70;1.60;;;8.20;69.30;;;;;;5076819;28;20545;-62
2022/02/18 09:12:13;;;;;;;1.60;1.50;;;8.20;68.70;;;;;;5074660;28;20028;-62
2022/02/18 09:14:39;;;;;;;2.05;1.80;;;8.20;68.60;;;;;;5072692;28;20494;-63
2022/02/18 09:17:05;;;;;;;1.80;1.70;;;8.20;68.40;;;;;;5074161;28;20061;-63
2022/02/18 09:19:32;;;;;;;1.52;1.40;;;8.30;68.70;;;;;;5070766;28;20531;-63
2022/02/18 09:21:57;;;;;;;1.35;1.33;;;8.30;68.40;;;;;;5063982;28;20033;-63
2022/02/18 09:24:25;;;;;;;2.00;1.80;;;8.30;68.20;;;;;;5067410;28;20387;-62
2022/02/18 09:26:51;;;;;;;1.58;1.45;;;8.30;68.20;;;;;;5070772;28;21057;-62
2022/02/18 09:29:17;;;;;;;1.80;1.70;;;8.30;68.20;;;;;;5076793;28;20062;-62
2022/02/18 09:31:43;;;;;;;1.98;1.70;;;8.40;68.10;;;;;;5074636;28;20032;-63
2022/02/18 09:34:09;;;;;;;1.40;1.30;;;8.40;67.70;;;;;;5075651;28;20020;-63
2022/02/18 09:36:35;;;;;;;1.60;1.50;;;8.40;67.20;;;;;;5071012;28;20032;-62
2022/02/18 09:39:02;;;;;;;2.00;1.80;;;8.50;67.00;;;;;;5075057;28;20115;-62
2022/02/18 09:41:28;;;;;;;2.20;2.00;;;8.50;66.60;;;;;;5077563;28;20046;-62
2022/02/18 09:43:59;;;;;;;1.90;1.80;;;8.50;66.10;;;;;;5074022;28;20070;-62
2022/02/18 09:46:27;;;;;;;1.77;1.50;;;8.50;65.90;;;;;;5073709;28;20043;-62
2022/02/18 09:48:54;;;;;;;2.80;1.80;;;8.50;65.70;;;;;;5079854;28;20103;-62
2022/02/18 09:51:20;;;;;;;2.28;1.55;;;8.50;65.80;;;;;;5072118;28;20058;-63
2022/02/18 09:53:47;;;;;;;2.10;1.80;;;8.60;65.80;;;;;;5073190;28;20038;-62
2022/02/18 09:56:15;;;;;;;1.52;1.42;;;8.60;65.80;;;;;;5070599;28;20030;-63
2022/02/18 09:58:41;;;;;;;1.88;1.77;;;8.60;65.60;;;;;;5066821;28;20711;-62
2022/02/18 10:01:07;;;;;;;1.80;1.70;;;8.60;65.50;;;;;;5065391;28;20061;-63
2022/02/18 10:03:32;;;;;;;1.50;1.40;;;8.60;65.60;;;;;;5067627;28;20087;-63
2022/02/18 10:05:59;;;;;;;1.80;1.70;;;8.50;65.80;;;;;;5072308;28;20085;-63
2022/02/18 10:08:27;;;;;;;2.35;1.77;;;8.50;65.60;;;;;;5076351;28;20061;-63
2022/02/18 10:10:58;;;;;;;1.98;1.50;;;8.50;65.70;;;;;;5073414;28;20066;-63
2022/02/18 10:13:41;;;;;;;1.30;1.30;;;8.50;65.90;;;;;;5070931;28;20032;-63
2022/02/18 10:16:14;;;;;;;1.48;1.38;;;8.40;66.00;;;;;;5074048;28;20063;-62
2022/02/18 10:18:58;;;;;;;3.38;1.73;;;8.40;66.20;;;;;;5074897;28;21500;-62
2022/02/18 10:21:29;;;;;;;1.98;1.70;;;8.40;66.10;;;;;;5077990;28;20024;-62
2022/02/18 10:24:16;;;;;;;2.30;1.95;;;8.30;66.10;;;;;;5079542;28;20039;-62
2022/02/18 10:26:54;;;;;;;2.22;1.50;;;8.40;66.10;;;;;;5078044;28;20040;-62
2022/02/18 10:29:22;;;;;;;1.98;1.80;;;8.40;66.20;;;;;;5077445;28;20039;-62
2022/02/18 10:32:08;;;;;;;1.60;1.50;;;8.40;66.10;;;;;;5075088;28;20032;-62
2022/02/18 10:34:56;;;;;;;2.05;1.52;;;8.50;66.00;;;;;;5068188;28;20098;-62
2022/02/18 10:37:23;;;;;;;1.85;1.60;;;8.60;66.00;;;;;;5066041;28;20879;-64
2022/02/18 10:39:49;;;;;;;2.42;1.50;;;8.60;66.00;;;;;;5080443;28;20085;-62
2022/02/18 10:42:16;;;;;;;2.13;1.88;;;8.70;66.00;;;;;;5072084;28;20038;-62
2022/02/18 10:44:42;;;;;;;3.08;1.73;;;8.70;65.80;;;;;;5079897;28;20024;-62
2022/02/18 10:47:20;;;;;;;2.17;1.73;;;8.70;65.80;;;;;;5076928;28;20399;-63
2022/02/18 10:49:46;;;;;;;2.00;1.45;;;8.80;65.50;;;;;;5078071;28;20031;-62
2022/02/18 10:52:17;;;;;;;2.35;1.85;;;8.90;65.30;;;;;;5075590;28;20028;-62
2022/02/18 10:54:50;;;;;;;2.00;1.80;;;8.90;64.50;;;;;;5077468;28;20085;-62
2022/02/18 10:57:19;;;;;;;1.55;1.45;;;8.90;64.50;;;;;;5075784;28;20040;-62
2022/02/18 10:59:46;;;;;;;1.83;1.73;;;8.90;64.40;;;;;;5070108;28;20036;-61
2022/02/18 11:02:12;;;;;;;2.17;1.77;;;9.00;64.10;;;;;;5069393;28;20040;-62
2022/02/18 11:04:38;;;;;;;1.85;1.73;;;9.10;63.50;;;;;;5064275;28;20111;-63
2022/02/18 11:07:15;;;;;;;1.70;1.58;;;9.10;63.30;;;;;;5069147;28;20085;-62
2022/02/18 11:09:46;;;;;;;1.83;1.58;;;9.20;63.20;;;;;;5075302;28;20028;-63
2022/02/18 11:12:12;;;;;;;1.92;1.70;;;9.20;63.00;;;;;;5068943;28;20753;-63
2022/02/18 11:14:47;;;;;;;1.92;1.80;;;9.30;62.90;;;;;;5075131;28;20028;-62
2022/02/18 11:17:14;;;;;;;2.60;1.92;;;9.30;62.70;;;;;;5079041;28;20110;-62
2022/02/18 11:19:44;;;;;;;1.83;1.73;;;9.40;62.60;;;;;;5073391;28;20031;-63
2022/02/18 11:22:10;;;;;;;2.85;1.70;;;9.40;62.20;;;;;;5076798;28;20024;-63
2022/02/18 11:24:38;;;;;;;3.65;3.00;;;9.40;62.30;;;;;;5074482;28;20548;-63
2022/02/18 11:27:04;;;;;;;2.58;2.10;;;9.50;62.40;;;;;;5077381;28;20031;-64
2022/02/18 11:29:35;;;;;;;1.70;1.60;;;9.50;62.10;;;;;;5073598;28;20112;-63
2022/02/18 11:32:07;;;;;;;2.10;1.90;;;9.60;62.70;;;;;;5075178;28;20119;-63
2022/02/18 11:34:54;;;;;;;2.78;2.10;;;9.60;61.80;;;;;;5071008;28;20496;-63
2022/02/18 11:37:58;;;;;;;2.55;1.80;;;9.60;61.80;;;;;;5075074;28;20020;-63
2022/02/18 11:40:31;;;;;;;4.15;2.38;;;9.70;61.50;;;;;;5074512;28;20444;-63
2022/02/18 11:43:08;;;;;;;1.70;1.60;;;9.70;61.60;;;;;;5071527;28;20579;-63
2022/02/18 11:45:34;;;;;;;2.67;1.80;;;9.70;61.20;;;;;;5074451;28;20024;-62
2022/02/18 11:48:00;;;;;;;2.50;2.00;;;9.60;61.20;;;;;;5077942;28;20039;-62
2022/02/18 11:50:29;;;;;;;2.30;2.10;;;9.60;61.40;;;;;;5078160;28;20021;-62
2022/02/18 11:52:55;;;;;;;2.53;2.08;;;9.60;61.40;;;;;;5076554;28;20024;-63
2022/02/18 11:55:38;;;;;;;2.63;2.30;;;9.60;61.50;;;;;;5080964;28;23309;-63
2022/02/18 11:58:03;;;;;;;4.82;2.28;;;9.60;61.80;;;;;;5071390;28;20040;-64
2022/02/18 12:00:39;;;;;;;2.78;2.33;;;9.60;62.30;;;;;;5072715;28;20039;-62
2022/02/18 12:03:15;;;;;;;2.60;2.20;;;9.70;62.10;;;;;;5080687;28;20090;-63
2022/02/18 12:06:26;;;;;;;4.22;2.75;;;9.70;61.90;;;;;;5078012;28;20382;-63
2022/02/18 12:08:53;;;;;;;4.40;3.33;;;9.80;62.00;;;;;;5069271;28;20044;-64
2022/02/18 12:11:19;;;;;;;2.67;2.20;;;9.80;61.70;;;;;;5079267;28;20028;-63
2022/02/18 12:13:57;;;;;;;2.55;2.25;;;9.90;61.50;;;;;;5075228;28;20123;-63
2022/02/18 12:16:24;;;;;;;4.05;2.63;;;9.90;61.70;;;;;;5072611;28;20594;-63
2022/02/18 12:19:03;;;;;;;2.25;1.92;;;10.00;61.70;;;;;;5079464;28;20063;-63
2022/02/18 12:21:28;;;;;;;3.30;2.33;;;10.00;61.40;;;;;;5078505;28;20094;-62
2022/02/18 12:23:54;;;;;;;3.83;2.90;;;10.10;61.30;;;;;;5076910;28;20119;-62
2022/02/18 12:26:22;;;;;;;4.25;2.45;;;10.10;61.50;;;;;;5080206;28;20909;-63
2022/02/18 12:28:49;;;;;;;4.03;3.22;;;10.10;61.60;;;;;;5073820;28;20024;-62
2022/02/18 12:31:16;;;;;;;4.47;2.72;;;10.10;61.60;;;;;;5075897;28;21506;-63
2022/02/18 12:33:43;;;;;;;5.18;3.50;;;10.10;61.70;;;;;;5077706;28;20047;-62
2022/02/18 12:36:14;;;;;;;5.78;3.60;;;10.10;61.80;;;;;;5078951;28;20134;-62
2022/02/18 12:38:42;;;;;;;4.28;2.92;;;10.10;61.80;;;;;;5076970;28;20031;-63
2022/02/18 12:41:18;;;;;;;3.67;2.97;;;10.00;61.70;;;;;;5079927;28;20107;-62
2022/02/18 12:43:44;;;;;;;5.95;2.88;;;10.00;61.90;;;;;;5078936;28;20032;-62
2022/02/18 12:46:15;;;;;;;5.18;2.90;;;9.90;62.10;;;;;;5071547;28;20037;-64
2022/02/18 12:48:47;;;;;;;3.88;3.08;;;9.90;62.40;;;;;;5074485;28;20033;-62
2022/02/18 12:51:26;;;;;;;;;;;9.90;62.90;;;;;;5079421;28;20107;-62
2022/02/18 12:53:53;;;;;;;4.25;3.10;;;9.80;62.80;;;;;;5078405;28;19939;-62
2022/02/18 12:56:28;;;;;;;3.72;2.60;;;9.90;63.00;;;;;;5084649;28;20111;-63
2022/02/18 12:59:04;;;;;;;3.47;2.75;;;9.90;63.10;;;;;;5081200;28;20040;-63